Time;durP1;ratioP1;P1;durP2;ratioP2;P2;SDS_P1;SDS_P2;PMS_P1;PMS_P2;Temp;Humidity;BMP_temperature;BMP_pressure;BME280_temperature;BME280_humidity;BME280_pressure;Samples;Min_cycle;Max_cycle;Signal;HPM_P1;HPM_P2
2023/05/18 00:01:06;;;;;;;13.90;6.83;;;8.20;78.30;;;;;;5036164;28;20416;-75
2023/05/18 00:03:32;;;;;;;13.00;6.87;;;8.20;78.00;;;;;;5032288;28;20250;-75
2023/05/18 00:06:03;;;;;;;12.47;6.00;;;8.20;78.00;;;;;;5030137;28;20196;-75
2023/05/18 00:08:30;;;;;;;10.20;5.60;;;8.30;78.40;;;;;;5048200;28;20459;-75
2023/05/18 00:10:56;;;;;;;11.10;6.10;;;8.40;78.70;;;;;;5044646;28;20430;-74
2023/05/18 00:13:22;;;;;;;10.93;5.73;;;8.40;78.40;;;;;;5037095;28;20486;-74
2023/05/18 00:15:47;;;;;;;11.70;6.40;;;8.40;78.60;;;;;;5037703;28;20792;-74
2023/05/18 00:18:13;;;;;;;7.90;6.33;;;8.30;78.60;;;;;;5037943;28;20305;-74
2023/05/18 00:20:39;;;;;;;13.43;6.53;;;8.20;78.90;;;;;;5036724;28;20269;-74
2023/05/18 00:23:05;;;;;;;14.80;7.13;;;8.20;79.00;;;;;;5034473;28;20205;-74
2023/05/18 00:25:30;;;;;;;15.90;7.40;;;8.20;79.30;;;;;;5046406;28;20180;-73
2023/05/18 00:27:56;;;;;;;14.27;7.87;;;8.20;79.70;;;;;;5032594;28;20471;-74
2023/05/18 00:30:24;;;;;;;18.57;8.20;;;8.20;80.00;;;;;;5035864;28;20178;-74
2023/05/18 00:32:50;;;;;;;17.70;7.93;;;8.20;80.30;;;;;;5032971;28;20691;-74
2023/05/18 00:35:15;;;;;;;17.43;8.50;;;8.20;80.50;;;;;;5039535;28;20495;-74
2023/05/18 00:37:41;;;;;;;14.77;8.33;;;8.10;80.50;;;;;;5036161;28;20427;-74
2023/05/18 00:40:07;;;;;;;15.60;8.77;;;8.10;81.10;;;;;;5038894;28;20181;-74
2023/05/18 00:42:33;;;;;;;21.23;8.57;;;8.10;81.10;;;;;;5030482;28;20233;-73
2023/05/18 00:44:59;;;;;;;14.07;8.80;;;8.10;81.10;;;;;;5038764;28;21052;-73
2023/05/18 00:47:26;;;;;;;17.90;8.43;;;8.10;81.20;;;;;;5043796;28;20384;-74
2023/05/18 00:49:52;;;;;;;15.93;7.97;;;8.10;81.10;;;;;;5033918;28;20505;-74
2023/05/18 00:52:18;;;;;;;14.33;7.07;;;8.00;81.20;;;;;;5031540;28;20484;-75
2023/05/18 00:54:44;;;;;;;15.53;8.23;;;8.00;81.40;;;;;;5046563;28;20192;-75
2023/05/18 00:57:10;;;;;;;14.80;8.23;;;8.00;81.70;;;;;;5040275;28;20506;-74
2023/05/18 00:59:35;;;;;;;23.00;8.93;;;8.00;81.80;;;;;;5038538;28;20432;-75
2023/05/18 01:02:01;;;;;;;16.93;7.70;;;8.00;81.80;;;;;;5035184;28;21029;-74
2023/05/18 01:04:30;;;;;;;15.60;6.83;;;8.00;81.80;;;;;;5042784;28;20192;-74
2023/05/18 01:06:57;;;;;;;13.23;6.90;;;8.00;81.50;;;;;;5033817;28;20527;-75
2023/05/18 01:09:23;;;;;;;13.57;6.80;;;8.00;81.10;;;;;;5035833;28;20419;-74
2023/05/18 01:12:13;;;;;;;12.83;6.70;;;7.90;81.40;;;;;;5030545;28;20444;-75
2023/05/18 01:14:51;;;;;;;10.97;5.57;;;7.80;81.70;;;;;;5032900;28;20455;-75
2023/05/18 01:17:36;;;;;;;20.77;6.90;;;7.60;81.80;;;;;;5028501;28;20921;-75
2023/05/18 01:20:14;;;;;;;12.97;5.90;;;7.60;81.90;;;;;;5031233;28;20424;-74
2023/05/18 01:23:14;;;;;;;14.17;7.80;;;7.60;82.20;;;;;;5034128;28;20497;-75
2023/05/18 01:25:48;;;;;;;14.90;8.37;;;7.70;82.20;;;;;;5037554;28;20416;-74
2023/05/18 01:28:18;;;;;;;14.63;8.70;;;7.70;82.20;;;;;;5037501;28;20471;-74
2023/05/18 01:30:44;;;;;;;14.10;7.40;;;7.60;82.50;;;;;;5038506;28;20960;-74
2023/05/18 01:33:11;;;;;;;17.67;9.03;;;7.50;83.00;;;;;;5039995;28;20460;-73
2023/05/18 01:35:40;;;;;;;14.87;8.10;;;7.50;83.40;;;;;;5048402;28;20424;-74
2023/05/18 01:38:06;;;;;;;14.27;8.43;;;7.50;83.40;;;;;;5040783;28;20516;-74
2023/05/18 01:40:44;;;;;;;16.90;8.10;;;7.50;83.80;;;;;;5037405;28;20511;-73
2023/05/18 01:43:15;;;;;;;18.40;7.97;;;7.60;83.60;;;;;;5036215;28;20463;-73
2023/05/18 01:45:45;;;;;;;13.97;8.33;;;7.60;83.60;;;;;;5036565;28;20419;-74
2023/05/18 01:48:15;;;;;;;16.77;8.40;;;7.60;83.60;;;;;;5034366;28;20566;-73
2023/05/18 01:50:44;;;;;;;16.80;8.40;;;7.50;83.60;;;;;;5034076;28;20424;-75
2023/05/18 01:53:43;;;;;;;18.80;8.17;;;7.50;83.80;;;;;;5031914;28;20506;-74
2023/05/18 01:56:10;;;;;;;16.70;8.10;;;7.50;84.00;;;;;;5026695;28;20420;-74
2023/05/18 01:58:36;;;;;;;12.67;8.50;;;7.40;84.00;;;;;;5030754;28;20843;-74
2023/05/18 02:01:03;;;;;;;16.07;8.23;;;7.40;84.00;;;;;;5032699;28;20431;-74
2023/05/18 02:03:31;;;;;;;14.77;8.23;;;7.30;84.30;;;;;;5033926;28;20455;-74
2023/05/18 02:05:57;;;;;;;18.33;9.53;;;7.30;84.40;;;;;;5034717;28;20427;-74
2023/05/18 02:08:22;;;;;;;14.70;8.00;;;7.30;84.60;;;;;;5032727;28;20829;-75
2023/05/18 02:10:48;;;;;;;18.30;9.23;;;7.20;84.70;;;;;;5032561;28;20185;-74
2023/05/18 02:13:13;;;;;;;22.37;8.27;;;7.20;85.00;;;;;;5032159;28;20213;-73
2023/05/18 02:15:39;;;;;;;17.43;8.60;;;7.20;85.20;;;;;;5030994;28;20720;-73
2023/05/18 02:18:07;;;;;;;15.13;8.20;;;7.20;85.30;;;;;;5030532;28;20181;-73
2023/05/18 02:20:32;;;;;;;15.83;8.53;;;7.10;85.20;;;;;;5029792;28;21021;-75
2023/05/18 02:22:58;;;;;;;19.50;9.50;;;7.10;85.50;;;;;;5022937;28;20456;-74
2023/05/18 02:25:25;;;;;;;13.97;8.03;;;7.10;85.60;;;;;;5029348;28;20212;-75
2023/05/18 02:27:51;;;;;;;15.70;8.77;;;7.10;85.70;;;;;;5030270;28;20463;-75
2023/05/18 02:30:17;;;;;;;20.07;9.40;;;7.10;85.60;;;;;;5025470;28;20499;-74
2023/05/18 02:32:45;;;;;;;16.13;8.60;;;6.90;85.70;;;;;;5028079;28;20455;-75
2023/05/18 02:35:11;;;;;;;12.67;7.67;;;6.90;86.00;;;;;;5031252;28;20185;-74
2023/05/18 02:37:42;;;;;;;20.10;10.53;;;6.90;86.00;;;;;;5032552;28;20434;-76
2023/05/18 02:40:12;;;;;;;19.00;10.07;;;6.90;86.20;;;;;;5035781;28;20458;-74
2023/05/18 02:42:38;;;;;;;15.03;9.17;;;6.90;86.20;;;;;;5031227;28;20459;-75
2023/05/18 02:45:04;;;;;;;16.60;8.90;;;6.90;86.30;;;;;;5032597;28;20497;-74
2023/05/18 02:47:29;;;;;;;16.43;8.80;;;6.80;86.50;;;;;;5039354;28;20205;-76
2023/05/18 02:49:55;;;;;;;14.40;8.03;;;6.80;86.60;;;;;;5029476;28;20459;-76
2023/05/18 02:52:21;;;;;;;17.23;9.10;;;6.80;86.80;;;;;;5029476;28;20297;-76
2023/05/18 02:54:46;;;;;;;19.83;9.47;;;6.70;86.60;;;;;;5036090;28;20284;-75
2023/05/18 02:57:12;;;;;;;14.23;7.70;;;6.70;86.90;;;;;;5030323;28;20189;-74
2023/05/18 02:59:38;;;;;;;16.20;8.63;;;6.70;87.00;;;;;;5031300;28;20197;-76
2023/05/18 03:02:04;;;;;;;19.60;9.50;;;6.60;87.10;;;;;;5030223;28;20493;-75
2023/05/18 03:04:30;;;;;;;15.37;8.40;;;6.60;87.30;;;;;;5031271;28;20526;-75
2023/05/18 03:06:57;;;;;;;18.53;9.30;;;6.60;87.30;;;;;;5034407;28;20284;-75
2023/05/18 03:09:23;;;;;;;18.47;9.43;;;6.60;87.40;;;;;;5035092;28;20451;-74
2023/05/18 03:11:50;;;;;;;15.30;7.60;;;6.60;87.40;;;;;;5035255;28;20470;-75
2023/05/18 03:14:16;;;;;;;16.40;8.87;;;6.60;87.40;;;;;;5037684;28;20526;-75
2023/05/18 03:16:41;;;;;;;13.03;8.00;;;6.60;87.40;;;;;;5043169;28;20986;-75
2023/05/18 03:19:07;;;;;;;24.90;10.93;;;6.60;87.40;;;;;;5035354;28;20255;-74
2023/05/18 03:21:34;;;;;;;16.97;8.17;;;6.50;87.30;;;;;;5039943;28;20184;-74
2023/05/18 03:24:01;;;;;;;15.60;8.20;;;6.50;87.40;;;;;;5036560;28;20424;-74
2023/05/18 03:26:29;;;;;;;15.83;7.77;;;6.50;87.40;;;;;;5035679;28;20442;-74
2023/05/18 03:28:58;;;;;;;14.57;8.53;;;6.50;87.60;;;;;;5037359;28;20455;-73
2023/05/18 03:31:26;;;;;;;17.07;7.90;;;6.50;87.40;;;;;;5037448;28;20416;-73
2023/05/18 03:33:51;;;;;;;14.93;7.97;;;6.40;87.40;;;;;;5037181;28;20411;-74
2023/05/18 03:36:17;;;;;;;14.10;8.20;;;6.40;87.40;;;;;;5036939;28;20416;-74
2023/05/18 03:38:45;;;;;;;13.47;7.80;;;6.40;87.60;;;;;;5037095;28;20189;-74
2023/05/18 03:41:11;;;;;;;18.13;8.80;;;6.30;87.60;;;;;;5039809;28;20224;-74
2023/05/18 03:43:36;;;;;;;15.70;7.97;;;6.30;87.70;;;;;;5038470;28;20459;-75
2023/05/18 03:46:02;;;;;;;17.00;8.10;;;6.30;87.70;;;;;;5033837;28;20428;-74
2023/05/18 03:48:28;;;;;;;21.93;8.30;;;6.20;87.80;;;;;;5033339;28;20285;-73
2023/05/18 03:50:54;;;;;;;17.20;8.33;;;6.20;87.80;;;;;;5033167;28;20187;-73
2023/05/18 03:53:20;;;;;;;28.07;8.57;;;6.20;88.00;;;;;;5031259;28;20463;-74
2023/05/18 03:55:48;;;;;;;18.20;8.37;;;6.20;88.00;;;;;;5033279;28;20415;-73
2023/05/18 03:58:14;;;;;;;18.40;9.50;;;6.20;88.10;;;;;;5034819;28;20553;-73
2023/05/18 04:00:41;;;;;;;22.60;8.67;;;6.20;88.00;;;;;;5035199;28;20438;-71
2023/05/18 04:03:11;;;;;;;17.27;8.73;;;6.10;88.00;;;;;;5033323;28;20448;-74
2023/05/18 04:05:38;;;;;;;15.97;8.80;;;6.10;88.10;;;;;;5033100;28;20432;-74
2023/05/18 04:08:06;;;;;;;14.07;8.33;;;6.20;88.30;;;;;;5036627;28;20983;-75
2023/05/18 04:10:31;;;;;;;12.63;7.60;;;6.30;88.10;;;;;;5034035;28;20427;-76
2023/05/18 04:12:57;;;;;;;20.50;9.07;;;6.30;88.10;;;;;;5031123;28;20509;-76
2023/05/18 04:15:23;;;;;;;15.67;9.20;;;6.30;88.00;;;;;;5043122;28;20553;-75
2023/05/18 04:17:52;;;;;;;14.13;8.30;;;6.30;88.00;;;;;;5039732;28;20185;-75
2023/05/18 04:20:18;;;;;;;18.07;8.73;;;6.20;88.00;;;;;;5042255;28;20188;-75
2023/05/18 04:22:46;;;;;;;19.60;8.60;;;6.30;88.00;;;;;;5030963;28;20460;-74
2023/05/18 04:25:15;;;;;;;19.00;8.40;;;6.30;88.00;;;;;;5037119;28;20428;-75
2023/05/18 04:27:44;;;;;;;14.10;8.37;;;6.30;88.00;;;;;;5036293;28;20543;-75
2023/05/18 04:30:10;;;;;;;14.33;8.70;;;6.30;88.00;;;;;;5032037;28;20428;-74
2023/05/18 04:32:36;;;;;;;17.40;7.20;;;6.30;88.00;;;;;;5031792;28;20459;-76
2023/05/18 04:35:06;;;;;;;13.60;8.27;;;6.40;87.80;;;;;;5038352;28;20427;-77
2023/05/18 04:37:32;;;;;;;12.57;7.13;;;6.50;87.70;;;;;;5037821;28;20788;-75
2023/05/18 04:40:01;;;;;;;15.93;8.03;;;6.50;87.70;;;;;;5039442;28;20428;-76
2023/05/18 04:42:28;;;;;;;15.40;7.63;;;6.60;87.40;;;;;;5032562;28;21001;-75
2023/05/18 04:44:53;;;;;;;18.63;8.90;;;6.60;87.40;;;;;;5034268;28;20448;-75
2023/05/18 04:47:22;;;;;;;16.60;8.23;;;6.70;87.30;;;;;;5038841;28;20539;-75
2023/05/18 04:49:51;;;;;;;13.40;7.97;;;6.70;87.10;;;;;;5032816;28;20181;-74
2023/05/18 04:52:17;;;;;;;18.57;8.10;;;6.80;87.00;;;;;;5030239;28;20464;-75
2023/05/18 04:54:42;;;;;;;12.90;7.60;;;6.80;86.80;;;;;;5038724;28;20416;-74
2023/05/18 04:57:08;;;;;;;13.07;8.17;;;6.90;86.60;;;;;;5033525;28;20450;-75
2023/05/18 04:59:35;;;;;;;14.43;8.10;;;7.00;86.30;;;;;;5031352;28;20189;-75
2023/05/18 05:02:02;;;;;;;16.27;8.30;;;7.00;86.00;;;;;;5028979;28;20201;-75
2023/05/18 05:04:28;;;;;;;16.23;8.50;;;7.10;85.90;;;;;;5036360;28;20529;-75
2023/05/18 05:06:54;;;;;;;12.90;6.87;;;7.10;85.90;;;;;;5033254;28;21026;-77
2023/05/18 05:09:20;;;;;;;15.73;7.93;;;7.20;85.60;;;;;;5034200;28;20506;-75
2023/05/18 05:11:46;;;;;;;14.57;7.77;;;7.20;85.50;;;;;;5035626;28;20185;-75
2023/05/18 05:14:12;;;;;;;12.80;7.50;;;7.30;85.00;;;;;;5031926;28;20419;-75
2023/05/18 05:16:38;;;;;;;15.40;7.70;;;7.30;84.40;;;;;;5043983;28;20185;-75
2023/05/18 05:19:03;;;;;;;12.00;7.97;;;7.40;84.00;;;;;;5037403;28;20485;-76
2023/05/18 05:21:30;;;;;;;18.97;9.17;;;7.40;83.70;;;;;;5034000;28;20439;-74
2023/05/18 05:23:56;;;;;;;12.30;8.03;;;7.50;83.60;;;;;;5035217;28;20250;-74
2023/05/18 05:26:21;;;;;;;18.57;7.83;;;7.50;83.30;;;;;;5033563;28;20990;-73
2023/05/18 05:28:47;;;;;;;12.13;7.50;;;7.60;83.00;;;;;;5037501;28;20213;-74
2023/05/18 05:31:13;;;;;;;16.53;9.10;;;7.60;81.40;;;;;;5041371;28;20652;-75
2023/05/18 05:33:39;;;;;;;16.57;7.67;;;7.30;79.60;;;;;;5038549;28;20219;-74
2023/05/18 05:36:05;;;;;;;11.63;6.80;;;7.40;79.90;;;;;;5038609;28;20180;-74
2023/05/18 05:38:31;;;;;;;14.07;7.67;;;7.60;80.20;;;;;;5031084;28;20200;-74
2023/05/18 05:40:57;;;;;;;15.10;7.03;;;7.70;79.90;;;;;;5031179;28;20438;-73
2023/05/18 05:43:22;;;;;;;13.60;6.77;;;7.80;79.70;;;;;;5025961;28;20479;-72
2023/05/18 05:45:48;;;;;;;13.33;6.73;;;7.90;79.60;;;;;;5031524;28;20910;-73
2023/05/18 05:48:14;;;;;;;14.70;6.80;;;8.00;79.30;;;;;;5036563;28;20220;-72
2023/05/18 05:50:40;;;;;;;12.13;5.83;;;8.10;78.60;;;;;;5032202;28;20185;-74
2023/05/18 05:53:05;;;;;;;13.50;7.17;;;8.10;77.70;;;;;;5030008;28;20580;-72
2023/05/18 05:55:31;;;;;;;15.33;6.27;;;8.10;76.70;;;;;;5030280;28;20267;-73
2023/05/18 05:57:56;;;;;;;12.00;6.43;;;8.10;76.80;;;;;;5037004;28;20319;-73
2023/05/18 06:00:23;;;;;;;10.47;6.90;;;8.20;76.20;;;;;;5033888;28;20200;-73
2023/05/18 06:02:49;;;;;;;11.93;6.90;;;8.30;75.80;;;;;;5023780;28;20233;-75
2023/05/18 06:05:14;;;;;;;10.60;6.00;;;8.30;75.40;;;;;;5036020;28;20458;-75
2023/05/18 06:07:40;;;;;;;13.70;5.83;;;8.30;75.40;;;;;;5039938;28;20212;-75
2023/05/18 06:10:07;;;;;;;11.93;6.13;;;8.40;75.20;;;;;;5030446;28;20189;-74
2023/05/18 06:12:32;;;;;;;11.30;6.23;;;8.30;75.20;;;;;;5026563;28;20263;-74
2023/05/18 06:14:58;;;;;;;13.13;6.53;;;8.40;74.90;;;;;;5032320;28;20416;-73
2023/05/18 06:17:25;;;;;;;17.27;7.47;;;8.50;74.80;;;;;;5032309;28;20193;-73
2023/05/18 06:19:51;;;;;;;14.50;5.97;;;8.50;74.50;;;;;;5032530;28;20182;-74
2023/05/18 06:22:17;;;;;;;12.33;5.80;;;8.50;74.50;;;;;;5036051;28;20476;-72
2023/05/18 06:24:43;;;;;;;9.77;5.80;;;8.60;74.80;;;;;;5036270;28;20208;-73
2023/05/18 06:27:09;;;;;;;16.77;6.73;;;8.70;74.50;;;;;;5035613;28;20208;-74
2023/05/18 06:29:34;;;;;;;11.20;6.20;;;8.80;74.00;;;;;;5034025;28;20907;-74
2023/05/18 06:32:00;;;;;;;8.70;5.00;;;8.90;73.60;;;;;;5027812;28;20728;-76
2023/05/18 06:34:26;;;;;;;10.93;5.90;;;9.00;73.60;;;;;;5028715;28;20208;-74
2023/05/18 06:36:51;;;;;;;13.93;6.83;;;9.10;72.90;;;;;;5032012;28;20411;-74
2023/05/18 06:39:17;;;;;;;15.43;6.93;;;9.10;72.90;;;;;;5044203;28;20276;-74
2023/05/18 06:41:44;;;;;;;13.40;7.00;;;9.10;73.00;;;;;;5038771;28;20184;-73
2023/05/18 06:44:10;;;;;;;12.43;5.67;;;9.10;73.20;;;;;;5033702;28;20201;-74
2023/05/18 06:46:36;;;;;;;9.50;5.97;;;9.20;73.00;;;;;;5036970;28;20431;-75
2023/05/18 06:49:02;;;;;;;12.37;6.00;;;9.30;73.00;;;;;;5036805;28;20467;-74
2023/05/18 06:51:27;;;;;;;14.13;6.50;;;9.30;72.60;;;;;;5036202;28;20937;-76
2023/05/18 06:53:53;;;;;;;12.33;6.00;;;9.10;72.90;;;;;;5037344;28;20199;-75
2023/05/18 06:56:20;;;;;;;15.17;6.53;;;9.10;73.50;;;;;;5038856;28;20196;-74
2023/05/18 06:58:46;;;;;;;13.17;6.10;;;9.20;72.60;;;;;;5035939;28;20200;-75
2023/05/18 07:01:11;;;;;;;12.20;5.93;;;9.30;72.70;;;;;;5036450;28;20423;-75
2023/05/18 07:03:40;;;;;;;13.27;5.57;;;9.40;72.30;;;;;;5031984;28;20201;-75
2023/05/18 07:06:06;;;;;;;7.27;4.73;;;9.60;72.10;;;;;;5034707;28;20213;-75
2023/05/18 07:08:32;;;;;;;9.30;5.57;;;9.80;72.00;;;;;;5035903;28;20561;-73
2023/05/18 07:10:58;;;;;;;20.63;7.23;;;9.90;71.00;;;;;;5036892;28;20419;-75
2023/05/18 07:13:24;;;;;;;12.83;5.23;;;10.00;70.10;;;;;;5035192;28;20455;-75
2023/05/18 07:15:49;;;;;;;10.30;5.63;;;10.00;69.90;;;;;;5036952;28;20428;-75
2023/05/18 07:18:15;;;;;;;12.30;5.80;;;10.10;70.10;;;;;;5036694;28;20522;-74
2023/05/18 07:20:41;;;;;;;16.07;6.03;;;10.20;69.80;;;;;;5040560;28;20197;-75
2023/05/18 07:23:07;;;;;;;10.17;5.27;;;10.30;69.40;;;;;;5028324;28;20734;-76
2023/05/18 07:25:33;;;;;;;10.80;5.10;;;10.50;69.10;;;;;;5037730;28;20494;-75
2023/05/18 07:27:58;;;;;;;13.30;5.73;;;10.60;68.90;;;;;;5038365;28;20470;-74
2023/05/18 07:30:27;;;;;;;14.93;5.80;;;10.70;68.80;;;;;;5040770;28;20431;-75
2023/05/18 07:32:53;;;;;;;12.17;6.83;;;10.70;68.60;;;;;;5033512;28;20200;-75
2023/05/18 07:35:20;;;;;;;14.87;5.53;;;10.80;68.50;;;;;;5039950;28;20976;-75
2023/05/18 07:37:46;;;;;;;10.23;5.90;;;10.80;68.80;;;;;;5036018;28;20420;-75
2023/05/18 07:40:11;;;;;;;10.83;5.13;;;10.90;68.80;;;;;;5047650;28;20430;-74
2023/05/18 07:42:39;;;;;;;13.60;5.53;;;11.10;68.60;;;;;;5031018;28;20680;-75
2023/05/18 07:45:06;;;;;;;11.53;6.30;;;11.20;68.30;;;;;;5034919;28;20463;-74
2023/05/18 07:47:32;;;;;;;10.60;5.10;;;11.20;68.30;;;;;;5042961;28;20502;-75
2023/05/18 07:49:58;;;;;;;12.27;6.30;;;11.30;68.50;;;;;;5037976;28;20447;-76
2023/05/18 07:52:24;;;;;;;8.40;5.30;;;11.50;68.30;;;;;;5036455;28;20521;-75
2023/05/18 07:54:49;;;;;;;10.43;5.50;;;11.50;68.50;;;;;;5048596;28;20180;-75
2023/05/18 07:57:15;;;;;;;14.10;5.77;;;11.60;68.20;;;;;;5037869;28;20188;-76
2023/05/18 07:59:41;;;;;;;13.63;6.00;;;11.70;68.30;;;;;;5034359;28;20185;-74
2023/05/18 08:02:06;;;;;;;10.20;5.30;;;11.80;68.00;;;;;;5045029;28;20216;-74
2023/05/18 08:04:32;;;;;;;14.07;5.63;;;12.00;67.90;;;;;;5043420;28;20541;-74
2023/05/18 08:06:59;;;;;;;8.87;5.23;;;12.10;68.00;;;;;;5033124;28;20188;-75
2023/05/18 08:09:28;;;;;;;11.40;6.07;;;12.20;67.70;;;;;;5034730;28;20914;-74
2023/05/18 08:11:54;;;;;;;11.53;5.70;;;12.20;67.20;;;;;;5032815;28;20446;-73
2023/05/18 08:16:55;;;;;;;13.33;5.77;;;12.30;67.30;;;;;;5296174;22;20252;-73
2023/05/18 08:19:20;;;;;;;11.17;5.17;;;12.50;67.50;;;;;;5015103;28;20437;-73
2023/05/18 08:21:46;;;;;;;6.07;4.90;;;12.70;67.20;;;;;;5014082;28;20194;-73
2023/05/18 08:24:11;;;;;;;18.67;5.60;;;12.80;66.70;;;;;;5000615;28;20182;-73
2023/05/18 08:26:37;;;;;;;9.27;4.60;;;13.00;66.90;;;;;;4995673;28;20252;-73
2023/05/18 08:29:08;;;;;;;8.77;5.47;;;13.00;66.10;;;;;;4995604;28;20837;-72
2023/05/18 08:31:40;;;;;;;11.10;6.60;;;12.80;66.00;;;;;;5010228;28;20174;-73
2023/05/18 08:34:06;;;;;;;13.13;5.67;;;13.00;66.10;;;;;;5013836;28;20825;-73
2023/05/18 08:36:36;;;;;;;10.50;5.27;;;13.10;65.60;;;;;;5014231;28;20473;-74
2023/05/18 08:39:03;;;;;;;13.70;6.20;;;13.00;64.50;;;;;;5014285;28;20421;-73
2023/05/18 08:41:30;;;;;;;14.10;6.40;;;13.10;65.30;;;;;;5014211;28;20484;-74
2023/05/18 08:44:03;;;;;;;11.77;5.87;;;13.20;65.00;;;;;;5013925;28;20437;-72
2023/05/18 08:46:34;;;;;;;9.63;5.50;;;13.30;64.50;;;;;;5004438;28;20531;-71
2023/05/18 08:49:01;;;;;;;11.60;5.57;;;13.50;64.70;;;;;;5013801;28;20567;-71
2023/05/18 08:51:31;;;;;;;7.73;4.77;;;13.50;62.80;;;;;;5013646;28;20478;-72
2023/05/18 08:53:59;;;;;;;9.10;5.00;;;13.50;63.10;;;;;;5014735;28;20460;-73
2023/05/18 08:56:28;;;;;;;10.03;5.10;;;13.70;62.60;;;;;;5009153;28;20519;-72
2023/05/18 08:58:55;;;;;;;11.00;5.27;;;13.90;61.30;;;;;;5009994;28;20427;-71
2023/05/18 09:01:26;;;;;;;10.00;4.57;;;14.00;61.20;;;;;;5008586;28;20518;-72
2023/05/18 09:03:52;;;;;;;9.77;5.00;;;14.10;61.20;;;;;;5015245;28;20417;-74
2023/05/18 09:06:19;;;;;;;11.13;4.73;;;14.30;60.90;;;;;;5013258;28;20457;-73
2023/05/18 09:08:45;;;;;;;12.87;5.10;;;14.30;60.00;;;;;;5018130;28;20460;-72
2023/05/18 09:11:12;;;;;;;13.13;5.30;;;14.20;59.60;;;;;;5011994;28;20788;-72
2023/05/18 09:13:38;;;;;;;8.17;4.80;;;14.20;60.30;;;;;;5017870;28;20431;-71
2023/05/18 09:16:04;;;;;;;19.73;5.90;;;14.40;59.30;;;;;;5015251;28;20460;-74
2023/05/18 09:18:29;;;;;;;11.63;5.50;;;14.60;58.70;;;;;;5024188;28;20210;-72
2023/05/18 09:20:55;;;;;;;9.40;5.00;;;14.60;58.40;;;;;;5022012;28;20520;-74
2023/05/18 09:23:21;;;;;;;9.03;5.00;;;14.80;57.60;;;;;;5015321;28;20283;-74
2023/05/18 09:25:48;;;;;;;10.03;4.73;;;14.80;57.40;;;;;;5009573;28;20475;-73
2023/05/18 09:28:37;;;;;;;13.10;4.90;;;14.90;57.40;;;;;;5013464;28;20561;-72
2023/05/18 09:31:06;;;;;;;10.83;5.80;;;15.00;57.40;;;;;;5012051;28;20436;-73
2023/05/18 09:33:35;;;;;;;10.03;6.30;;;14.80;56.90;;;;;;5021247;28;20425;-73
2023/05/18 09:36:06;;;;;;;12.10;5.17;;;15.00;56.60;;;;;;5012882;28;20499;-73
2023/05/18 09:38:44;;;;;;;11.67;5.27;;;15.20;56.90;;;;;;5018762;28;20503;-72
2023/05/18 09:41:11;;;;;;;10.20;5.13;;;15.30;56.60;;;;;;5012315;28;20850;-73
2023/05/18 09:43:37;;;;;;;10.03;4.90;;;15.50;55.30;;;;;;5023987;28;20427;-73
2023/05/18 09:46:07;;;;;;;8.60;5.43;;;15.50;55.20;;;;;;5011328;28;21192;-73
2023/05/18 09:48:35;;;;;;;9.03;4.90;;;15.40;55.40;;;;;;5016600;28;20468;-73
2023/05/18 09:51:03;;;;;;;8.47;5.10;;;15.50;55.80;;;;;;5017684;28;20424;-73
2023/05/18 09:53:28;;;;;;;9.73;4.60;;;15.60;54.50;;;;;;5011942;28;20437;-74
2023/05/18 09:55:54;;;;;;;9.20;5.13;;;15.50;54.40;;;;;;5007934;28;20465;-73
2023/05/18 09:58:20;;;;;;;12.10;4.57;;;15.50;54.40;;;;;;5013696;28;20289;-73
2023/05/18 10:00:50;;;;;;;9.30;5.33;;;15.50;54.90;;;;;;5019819;28;20197;-73
2023/05/18 10:03:23;;;;;;;9.83;4.97;;;15.80;54.20;;;;;;5012731;28;20272;-74
2023/05/18 10:05:50;;;;;;;11.80;4.50;;;16.00;53.80;;;;;;5005837;28;20495;-73
2023/05/18 10:08:16;;;;;;;15.77;5.73;;;16.20;52.80;;;;;;5013425;28;20472;-72
2023/05/18 10:10:44;;;;;;;6.70;4.20;;;16.30;52.40;;;;;;5013953;28;21055;-72
2023/05/18 10:13:17;;;;;;;9.03;5.57;;;16.60;51.70;;;;;;5009209;28;20436;-73
2023/05/18 10:15:48;;;;;;;7.83;4.73;;;16.60;51.20;;;;;;5007851;28;20455;-73
2023/05/18 10:18:19;;;;;;;8.80;4.63;;;16.60;51.20;;;;;;5013317;28;20923;-73
2023/05/18 10:20:46;;;;;;;11.20;4.23;;;16.70;51.00;;;;;;5022902;28;20424;-73
2023/05/18 10:23:12;;;;;;;10.57;4.53;;;16.30;51.00;;;;;;5014685;28;20433;-74
2023/05/18 10:25:40;;;;;;;9.87;5.37;;;15.90;51.70;;;;;;5010877;28;20467;-73
2023/05/18 10:28:08;;;;;;;9.83;4.37;;;15.70;52.60;;;;;;5014751;28;20472;-73
2023/05/18 10:30:35;;;;;;;8.70;5.03;;;15.90;52.80;;;;;;5013578;28;20428;-73
2023/05/18 10:33:01;;;;;;;6.40;4.23;;;16.30;51.80;;;;;;5010651;28;20430;-73
2023/05/18 10:35:27;;;;;;;8.47;5.20;;;16.60;51.60;;;;;;5015772;28;20581;-73
2023/05/18 10:37:56;;;;;;;11.50;5.00;;;16.70;50.90;;;;;;5014515;28;20438;-73
2023/05/18 10:40:23;;;;;;;9.80;5.17;;;16.70;50.90;;;;;;5020141;28;20495;-73
2023/05/18 10:42:50;;;;;;;8.73;4.50;;;16.10;50.70;;;;;;5015162;28;20436;-74
2023/05/18 10:45:16;;;;;;;9.80;4.83;;;15.90;52.10;;;;;;5014906;28;20447;-72
2023/05/18 10:47:43;;;;;;;8.37;4.70;;;16.10;51.70;;;;;;5015319;28;21001;-73
2023/05/18 10:50:09;;;;;;;9.57;4.20;;;16.40;52.10;;;;;;5013807;28;20209;-74
2023/05/18 10:52:40;;;;;;;8.50;3.70;;;16.90;51.00;;;;;;5014967;28;20518;-73
2023/05/18 10:55:07;;;;;;;9.00;5.27;;;17.20;49.00;;;;;;5014607;28;20423;-73
2023/05/18 10:57:38;;;;;;;8.63;4.83;;;16.90;49.30;;;;;;5009849;28;20489;-73
2023/05/18 11:00:09;;;;;;;8.63;4.83;;;16.90;49.80;;;;;;5017663;28;20934;-73
2023/05/18 11:02:38;;;;;;;9.80;4.90;;;16.40;50.30;;;;;;5021240;28;20801;-74
2023/05/18 11:05:05;;;;;;;9.00;4.63;;;16.40;51.20;;;;;;5014233;28;20447;-73
2023/05/18 11:07:32;;;;;;;11.40;5.00;;;16.50;49.90;;;;;;5013190;28;20952;-73
2023/05/18 11:10:01;;;;;;;10.73;3.93;;;17.00;49.70;;;;;;5014289;28;20491;-74
2023/05/18 11:12:27;;;;;;;15.10;4.47;;;17.50;48.50;;;;;;5024388;28;20566;-74
2023/05/18 11:14:56;;;;;;;9.80;4.83;;;17.60;47.90;;;;;;5013262;28;20451;-73
2023/05/18 11:17:28;;;;;;;7.30;4.63;;;18.00;47.10;;;;;;5011468;28;20226;-73
2023/05/18 11:20:11;;;;;;;10.40;4.47;;;18.20;46.90;;;;;;5013132;28;20442;-74
2023/05/18 11:22:58;;;;;;;8.87;4.43;;;18.30;46.20;;;;;;5005096;28;20419;-73
2023/05/18 11:25:27;;;;;;;8.40;4.60;;;17.90;46.20;;;;;;5004174;28;20453;-73
2023/05/18 11:28:01;;;;;;;11.30;4.57;;;17.10;47.70;;;;;;5007987;28;20475;-73
2023/05/18 11:30:33;;;;;;;9.70;4.23;;;16.80;48.20;;;;;;5022808;28;20419;-73
2023/05/18 11:33:11;;;;;;;10.03;3.90;;;17.20;48.30;;;;;;5016280;28;20451;-74
2023/05/18 11:36:07;;;;;;;7.83;3.67;;;17.90;46.90;;;;;;5001304;28;20460;-73
2023/05/18 11:39:05;;;;;;;8.20;4.40;;;18.40;46.50;;;;;;5018666;28;20969;-73
2023/05/18 11:41:35;;;;;;;9.73;3.87;;;18.50;45.10;;;;;;5016632;28;20475;-73
2023/05/18 11:44:20;;;;;;;7.60;3.60;;;18.50;45.10;;;;;;5020770;28;20482;-73
2023/05/18 11:47:07;;;;;;;8.53;4.13;;;18.50;44.30;;;;;;5015985;28;20463;-74
2023/05/18 11:49:43;;;;;;;9.37;3.87;;;18.40;45.50;;;;;;5017542;28;20448;-73
2023/05/18 11:52:11;;;;;;;6.70;3.90;;;17.30;47.40;;;;;;5010809;28;21000;-73
2023/05/18 11:54:51;;;;;;;9.87;3.90;;;17.10;48.20;;;;;;5013010;28;20453;-73
2023/05/18 11:57:18;;;;;;;9.17;4.10;;;17.20;47.50;;;;;;5013975;28;20453;-72
2023/05/18 11:59:48;;;;;;;8.60;4.20;;;17.00;47.30;;;;;;5024596;28;20489;-73
2023/05/18 12:02:30;;;;;;;13.70;4.90;;;17.30;47.70;;;;;;5020111;28;20406;-73
2023/05/18 12:05:01;;;;;;;13.43;4.43;;;17.50;47.30;;;;;;5019618;28;20415;-74
2023/05/18 12:07:29;;;;;;;7.40;3.90;;;18.00;46.50;;;;;;5025773;28;20465;-73
2023/05/18 12:10:03;;;;;;;5.80;4.00;;;17.80;45.80;;;;;;5025502;28;20848;-73
2023/05/18 12:12:29;;;;;;;11.43;4.40;;;17.20;46.90;;;;;;5027072;28;20420;-74
2023/05/18 12:15:04;;;;;;;5.13;3.90;;;17.30;47.70;;;;;;5025642;28;20453;-73
2023/05/18 12:17:42;;;;;;;8.67;4.00;;;17.90;46.60;;;;;;5025633;28;21005;-74
2023/05/18 12:20:10;;;;;;;14.80;3.87;;;17.50;47.00;;;;;;5011658;28;20519;-73
2023/05/18 12:22:40;;;;;;;10.20;3.87;;;18.00;47.00;;;;;;5011153;28;20590;-73
2023/05/18 12:25:06;;;;;;;12.40;4.33;;;18.60;45.90;;;;;;5012198;28;20456;-74
2023/05/18 12:27:43;;;;;;;9.93;4.00;;;18.20;45.30;;;;;;5008894;28;20488;-73
2023/05/18 12:30:11;;;;;;;9.60;4.60;;;17.80;46.50;;;;;;5025494;28;20419;-73
2023/05/18 12:32:37;;;;;;;5.23;3.57;;;18.20;46.30;;;;;;5029235;28;20490;-74
2023/05/18 12:35:04;;;;;;;6.40;4.17;;;18.70;45.30;;;;;;5030872;28;20798;-74
2023/05/18 12:37:30;;;;;;;7.00;4.00;;;18.50;45.70;;;;;;5029139;28;20440;-74
2023/05/18 12:39:56;;;;;;;8.30;4.20;;;18.80;45.40;;;;;;5022199;28;20437;-74
2023/05/18 12:42:21;;;;;;;7.53;4.07;;;18.80;45.50;;;;;;5028400;28;20257;-73
2023/05/18 12:44:49;;;;;;;5.87;3.93;;;19.10;45.00;;;;;;5024132;28;20231;-72
2023/05/18 12:47:15;;;;;;;18.50;3.90;;;20.00;43.10;;;;;;5008713;28;20220;-73
2023/05/18 12:49:47;;;;;;;7.77;4.30;;;19.40;43.80;;;;;;5023758;28;20431;-72
2023/05/18 12:52:14;;;;;;;6.77;3.77;;;19.40;44.60;;;;;;5012085;28;20202;-72